Orlando, FL

11:50 AM EDT on May 29, 2015 (GMT -0400)
Lake Como | | Change Station
CLOSE
Current Station
Personal Weather Station
Location: Orlando, FL
Elevation: 154 ft
Nearby Weather Stations

Elev 154 ft 28.54 °N, 81.35 °W | Updated 2 minutes ago

Mostly Cloudy
Mostly Cloudy
84.7 °F
Feels Like 88 °F
N
8.3
Wind Variable Wind from NNE

Today
High -- | Low -- °F
--% Chance of Precip.
Yesterday
High -- | Low -- °F
Precip. -- in
6:28 AM 8:17 PM
Waxing Gibbous, 84% visible
Pressure 30.14 in
Visibility 10.0 miles
Clouds Mostly Cloudy 4300 ft
Heat Index 88 °F
Dew Point 68 °F
Humidity 57%
Rainfall 0.00 in
Snow Depth Not available.
UV 6 out of 12
Pollen 4.60 out of 12
Air Quality Not available.
Flu Activity Sporadic
METAR KORL 291453Z 08006KT 10SM BKN043 28/18 A3012 RMK AO2 SLP204 T02830183 52010

More Conditions Fewer Conditions

Pressure 30.14 in
Visibility 10.0 miles
Clouds Mostly Cloudy 4300 ft
Heat Index 88 °F
Dew Point 68 °F
Humidity 57%
Rainfall 0.00 in
Snow Depth Not available.
UV 6 out of 12
Pollen 4.60 out of 12
Air Quality Not available.
Flu Activity Sporadic
METAR KORL 291453Z 08006KT 10SM BKN043 28/18 A3012 RMK AO2 SLP204 T02830183 52010

More Conditions Fewer Conditions

10-Day Weather Forecast

Almanac

Astronomy

May. 29, 2015 Rise Set
Actual Time
Civil Twilight
Nautical Twilight
Astronomical Twilight
Moon
Length of Visible Light
Length of Day
Tomorrow will be .
, % of the Moon is Illuminated

Today's Extremes

State Highs State Lows

Community

WunderPhotos

Upload Photos

1,825,294 photos uploaded!

WunderBlogs® & News

Nearby

Air Quality

  Air Quality AQ Index Pollutant
Not available.

Snow Depth

Station Depth Elevation

Earthquake Activity

City Distance Mag. Time & Date
Minimum magnitude displayed is 2.5.

Coastal Water Temperatures

Place Temperature

Stations

Nearby Weather Stations

Station Location Temp. Windchill Dew Point Humidity Wind Precip. Elev Updated Type